Main page
METAR-TAF:

METAR-TAF

Airports :

Farnborough Airport

Farnborough, England

latitude: 51-17N, longitude: 000-46W, elevation: 65 m

Current weather observation

The report was made 26 minutes ago, at 08:50 UTC
Wind 6 kt from the Northwest, varying between West and North/Northwest
Temperature 7°C
Humidity 70%
Pressure 1035 hPa
Visibility 10 km or more

METAR: EGLF 260850Z AUTO 31006KT 270V330 9999 NCD 07/02 Q1035

Time: 09:16 (09:16 UTC)

Forecast

The report was made 1 hour and 19 minutes ago, at 07:57 UTC
Forecast valid from 26 at 09 UTC to 26 at 18 UTC
Wind 7 kt from the North/Northwest
Visibility 10 km or more
Scattered clouds at a height of 4000 ft

TAF: EGLF 260757Z 2609/2618 34007KT 9999 SCT040

Weather observations and forecasts of more than 4000 airports (METAR and TAF reports).

The available stations are represented by yellow and red dots on the map.

Hover mouse over dot to see the name of the station.

Then click to see weather observations and forecasts.

To change the map : click on the green buttons with a black cross to zoom in, on the green button with a dash to zoom out, or on the green arrows for adjacent maps.


METAR-TAF: